Rechercher aéroport 
image banner adimage banner adimage banner ad
image banner ad

PN51 - Summers Psnl Use

Situé à Linesville, United States

ICAO - PN51, IATA -

Données fournies par Airmate  

Information générale

Coordonnées: N41°40'0" W80°24'59"
Élévation : 1040 feet MSL.
Variation magnétique : -08° East
Voir autres Aéroports à Pennsylvania

Données opérationnelles

Special qualification required
Heure actuelle UTC:
Heure actuelle locale:
Météo à : KGKJ - Port Meadville ( 17 km )
METAR: KGKJ 132053Z AUTO 33008G14KT 10SM BKN045 BKN050 25/18 A2986 RMK AO2 LTG DSNT SE SLP101 T02500183 55007
Voir NOTAMs / SUP AIP / TFR affectant cet aéroport [VIEW]
Fréquences de communication: [VIEW]

Pistes:

Coordonnées de l'aéroport

Adresse: Linesville United States

Vue satellite de PN51